Map

Track Data

SID SEASON NUMBER BASIN SUBBASIN NAME ISO_TIME NATURE LAT LON WMO_WIND WMO_PRES WMO_AGENCY TRACK_TYPE DIST2LAND LANDFALL IFLAG USA_AGENCY USA_ATCF_ID USA_LAT USA_LON USA_RECORD USA_STATUS USA_WIND USA_PRES USA_SSHS USA_R34_NE USA_R34_SE USA_R34_SW USA_R34_NW USA_R50_NE USA_R50_SE USA_R50_SW USA_R50_NW USA_R64_NE USA_R64_SE USA_R64_SW USA_R64_NW USA_POCI USA_ROCI USA_RMW USA_EYE TOKYO_LAT TOKYO_LON TOKYO_GRADE TOKYO_WIND TOKYO_PRES TOKYO_R50_DIR TOKYO_R50_LONG TOKYO_R50_SHORT TOKYO_R30_DIR TOKYO_R30_LONG TOKYO_R30_SHORT TOKYO_LAND CMA_LAT CMA_LON CMA_CAT CMA_WIND CMA_PRES HKO_LAT HKO_LON HKO_CAT HKO_WIND HKO_PRES NEWDELHI_LAT NEWDELHI_LON NEWDELHI_GRADE NEWDELHI_WIND NEWDELHI_PRES NEWDELHI_CI NEWDELHI_DP NEWDELHI_POCI REUNION_LAT REUNION_LON REUNION_TYPE REUNION_WIND REUNION_PRES REUNION_TNUM REUNION_CI REUNION_RMW REUNION_R34_NE REUNION_R34_SE REUNION_R34_SW REUNION_R34_NW REUNION_R50_NE REUNION_R50_SE REUNION_R50_SW REUNION_R50_NW REUNION_R64_NE REUNION_R64_SE REUNION_R64_SW REUNION_R64_NW BOM_LAT BOM_LON BOM_TYPE BOM_WIND BOM_PRES BOM_TNUM BOM_CI BOM_RMW BOM_R34_NE BOM_R34_SE BOM_R34_SW BOM_R34_NW BOM_R50_NE BOM_R50_SE BOM_R50_SW BOM_R50_NW BOM_R64_NE BOM_R64_SE BOM_R64_SW BOM_R64_NW BOM_ROCI BOM_POCI BOM_EYE BOM_POS_METHOD BOM_PRES_METHOD NADI_LAT NADI_LON NADI_CAT NADI_WIND NADI_PRES WELLINGTON_LAT WELLINGTON_LON WELLINGTON_WIND WELLINGTON_PRES DS824_LAT DS824_LON DS824_STAGE DS824_WIND DS824_PRES TD9636_LAT TD9636_LON TD9636_STAGE TD9636_WIND TD9636_PRES TD9635_LAT TD9635_LON TD9635_WIND TD9635_PRES TD9635_ROCI NEUMANN_LAT NEUMANN_LON NEUMANN_CLASS NEUMANN_WIND NEUMANN_PRES MLC_LAT MLC_LON MLC_CLASS MLC_WIND MLC_PRES USA_GUST BOM_GUST BOM_GUST_PER REUNION_GUST REUNION_GUST_PER USA_SEAHGT USA_SEARAD_NE USA_SEARAD_SE USA_SEARAD_SW USA_SEARAD_NW STORM_SPEED STORM_DIR
1895234N15292 1895 27 NA CS NOT_NAMED 1895-08-22 00:00:00 TS 14.5000 -68.5000 spur-merge 308 289 _____________O -1 14.5000 -68.5000 TD 30 8 268
1895234N15292 1895 27 NA CS NOT_NAMED 1895-08-22 03:00:00 TS 14.4877 -68.9175 spur-merge 289 276 _____________P -1 14.4877 -68.9175 TD 30 8 270
1895234N15292 1895 27 NA CS NOT_NAMED 1895-08-22 06:00:00 TS 14.5000 -69.3000 spur-merge 276 270 _____________O -1 14.5000 -69.3000 TD 30 7 275
1895234N15292 1895 27 NA CS NOT_NAMED 1895-08-22 09:00:00 TS 14.5498 -69.6350 spur-merge 270 270 _____________P -1 14.5498 -69.6350 TD 32 7 278
1895234N15292 1895 27 NA CS NOT_NAMED 1895-08-22 12:00:00 TS 14.6000 -70.0000 spur-merge 279 273 _____________O -1 14.6000 -70.0000 TS 35 8 274
1895234N15292 1895 27 NA CS NOT_NAMED 1895-08-22 15:00:00 TS 14.6000 -70.4701 spur-merge 269 252 _____________P -1 14.6000 -70.4701 TS 37 10 270
1895234N15292 1895 27 NA CS NOT_NAMED 1895-08-22 18:00:00 TS 14.6000 -71.0000 spur-merge 252 246 _____________O -1 14.6000 -71.0000 TS 40 10 272
1895234N15292 1895 27 NA CS NOT_NAMED 1895-08-22 21:00:00 TS 14.6350 -71.5500 spur-merge 246 246 _____________P -1 14.6350 -71.5500 TS 42 11 275
1895234N15292 1895 27 NA CS NOT_NAMED 1895-08-23 00:00:00 TS 14.7000 -72.1000 spur-merge 261 261 _____________O -1 14.7000 -72.1000 TS 45 10 279
1895234N15292 1895 27 NA CS NOT_NAMED 1895-08-23 03:00:00 TS 14.7998 -72.6000 spur-merge 285 285 _____________P -1 14.7998 -72.6000 TS 45 10 282
1895234N15292 1895 27 NA CS NOT_NAMED 1895-08-23 06:00:00 TS 14.9000 -73.1000 spur-merge 314 314 _____________O -1 14.9000 -73.1000 TS 45 10 279
1895234N15292 1895 27 NA CS NOT_NAMED 1895-08-23 09:00:00 TS 14.9575 -73.6501 spur-merge 335 335 _____________P -1 14.9575 -73.6501 TS 45 11 275
1895234N15292 1895 27 NA CS NOT_NAMED 1895-08-23 12:00:00 TS 15.0000 -74.2000 spur-merge 337 337 _____________O -1 15.0000 -74.2000 TS 45 10 275
1895234N15292 1895 27 NA CS NOT_NAMED 1895-08-23 15:00:00 TS 15.0498 -74.7000 spur-merge 346 331 _____________P -1 15.0498 -74.7000 TS 45 10 276
1895234N15292 1895 27 NA CS NOT_NAMED 1895-08-23 18:00:00 TS 15.1000 -75.2000 spur-merge 331 317 _____________O -1 15.1000 -75.2000 TS 45 10 273
1895234N15292 1895 27 NA CS NOT_NAMED 1895-08-23 21:00:00 TS 15.0975 -75.7504 spur-merge 316 295 _____________P -1 15.0975 -75.7504 TS 47 11 275
1895234N15292 1895 27 NA CS NOT_NAMED 1895-08-24 00:00:00 TS 15.2000 -76.3000 spur-merge 295 249 _____________O -1 15.2000 -76.3000 TS 50 11 294
1895234N15292 1895 27 NA CS NOT_NAMED 1895-08-24 03:00:00 TS 15.5473 -76.7999 spur-merge 249 190 _____________P -1 15.5473 -76.7999 TS 50 13 310
1895234N15292 1895 27 NA CS NOT_NAMED 1895-08-24 06:00:00 TS 16.0000 -77.3000 spur-merge 190 154 _____________O -1 16.0000 -77.3000 TS 50 13 312
1895234N15292 1895 27 NA CS NOT_NAMED 1895-08-24 09:00:00 TS 16.4374 -77.8423 spur-merge 158 138 _____________P -1 16.4374 -77.8423 TS 50 13 307
1895234N15292 1895 27 NA CS NOT_NAMED 1895-08-24 12:00:00 TS 16.8000 -78.4000 spur-merge 143 140 _____________O -1 16.8000 -78.4000 TS 50 12 297
1895234N15292 1895 27 NA CS NOT_NAMED 1895-08-24 15:00:00 TS 16.9875 -78.9654 spur-merge 148 148 _____________P -1 16.9875 -78.9654 TS 50 11 286
1895234N15292 1895 27 NA CS NOT_NAMED 1895-08-24 18:00:00 TS 17.1000 -79.5000 spur-merge 169 169 _____________O -1 17.1000 -79.5000 TS 50 10 285
1895234N15292 1895 27 NA CS NOT_NAMED 1895-08-24 21:00:00 TS 17.2423 -79.9726 spur-merge 203 197 _____________P -1 17.2423 -79.9726 TS 50 9 289
1895234N15292 1895 27 NA CS NOT_NAMED 1895-08-25 00:00:00 TS 17.4000 -80.4000 spur-merge 229 229 _____________O -1 17.4000 -80.4000 TS 50 9 294
1895234N15292 1895 27 NA CS NOT_NAMED 1895-08-25 03:00:00 TS 17.5999 -80.8075 spur-merge 262 262 _____________P -1 17.5999 -80.8075 TS 50 9 298
1895234N15292 1895 27 NA CS NOT_NAMED 1895-08-25 06:00:00 TS 17.8000 -81.2000 spur-merge 299 299 _____________O -1 17.8000 -81.2000 TS 50 8 295
1895234N15292 1895 27 NA CS NOT_NAMED 1895-08-25 09:00:00 TS 17.9574 -81.6001 spur-merge 338 338 _____________P -1 17.9574 -81.6001 TS 50 8 292
1895234N15292 1895 27 NA CS NOT_NAMED 1895-08-25 12:00:00 TS 18.1000 -82.0000 spur-merge 347 336 _____________O -1 18.1000 -82.0000 TS 50 8 291
1895234N15292 1895 27 NA CS NOT_NAMED 1895-08-25 15:00:00 TS 18.2500 -82.4075 spur-merge 336 327 _____________P -1 18.2500 -82.4075 TS 50 8 292
1895234N15292 1895 27 NA CS NOT_NAMED 1895-08-25 18:00:00 TS 18.4000 -82.8000 spur-merge 331 322 _____________O -1 18.4000 -82.8000 TS 50 7 291
1895234N15292 1895 27 NA CS NOT_NAMED 1895-08-25 21:00:00 TS 18.5123 -83.1429 spur-merge 325 308 _____________P -1 18.5501 -83.1599 TS 50 7 294
1895234N15292 1895 27 NA CS NOT_NAMED 1895-08-26 00:00:00 TS 18.7000 -83.5000 spur-merge 310 _____________O -1 18.7000 -83.5000 TS 50 8 299

About IBTrACS Database

This database is a web-friendly format of International Best Track Archive for Climate Stewardship (IBTrACS), a global best track data archive curated by NOAA dating back to 1842.

Updated: 2021-10-27